sensor_id;sensor_type;location;lat;lon;timestamp;P1;durP1;ratioP1;P2;durP2;ratioP2
38111;SDS011;64011;56.312;44.048;2023-09-30T00:00:47;24.15;;;14.23;;
38111;SDS011;64011;56.312;44.048;2023-09-30T00:02:48;27.42;;;16.65;;
38111;SDS011;64011;56.312;44.048;2023-09-30T00:04:50;27.08;;;15.73;;
38111;SDS011;64011;56.312;44.048;2023-09-30T00:06:51;26.15;;;15.95;;
38111;SDS011;64011;56.312;44.048;2023-09-30T00:08:51;30.48;;;16.35;;
38111;SDS011;64011;56.312;44.048;2023-09-30T00:10:52;27.58;;;14.80;;
38111;SDS011;64011;56.312;44.048;2023-09-30T00:12:53;26.42;;;15.52;;
38111;SDS011;64011;56.312;44.048;2023-09-30T00:14:54;27.13;;;15.90;;
38111;SDS011;64011;56.312;44.048;2023-09-30T00:16:55;23.95;;;15.48;;
38111;SDS011;64011;56.312;44.048;2023-09-30T00:18:56;25.48;;;15.15;;
38111;SDS011;64011;56.312;44.048;2023-09-30T00:20:58;25.60;;;16.58;;
38111;SDS011;64011;56.312;44.048;2023-09-30T00:22:59;26.85;;;15.73;;
38111;SDS011;64011;56.312;44.048;2023-09-30T00:25:00;26.67;;;16.27;;
38111;SDS011;64011;56.312;44.048;2023-09-30T00:27:01;27.98;;;17.00;;
38111;SDS011;64011;56.312;44.048;2023-09-30T00:29:02;31.38;;;18.25;;
38111;SDS011;64011;56.312;44.048;2023-09-30T00:31:06;27.40;;;17.73;;
38111;SDS011;64011;56.312;44.048;2023-09-30T00:33:07;26.67;;;16.73;;
38111;SDS011;64011;56.312;44.048;2023-09-30T00:35:08;29.23;;;17.80;;
38111;SDS011;64011;56.312;44.048;2023-09-30T00:37:11;27.52;;;16.95;;
38111;SDS011;64011;56.312;44.048;2023-09-30T00:39:11;27.90;;;18.02;;
38111;SDS011;64011;56.312;44.048;2023-09-30T00:41:12;27.60;;;18.67;;
38111;SDS011;64011;56.312;44.048;2023-09-30T00:43:17;30.15;;;18.65;;
38111;SDS011;64011;56.312;44.048;2023-09-30T00:45:18;30.90;;;18.77;;
38111;SDS011;64011;56.312;44.048;2023-09-30T00:47:19;30.85;;;19.00;;
38111;SDS011;64011;56.312;44.048;2023-09-30T00:49:20;31.23;;;18.45;;
38111;SDS011;64011;56.312;44.048;2023-09-30T00:51:22;29.58;;;18.40;;
38111;SDS011;64011;56.312;44.048;2023-09-30T00:53:24;27.90;;;17.83;;
38111;SDS011;64011;56.312;44.048;2023-09-30T00:55:25;28.23;;;16.67;;
38111;SDS011;64011;56.312;44.048;2023-09-30T00:57:26;28.58;;;17.52;;
38111;SDS011;64011;56.312;44.048;2023-09-30T00:59:28;31.55;;;17.27;;
38111;SDS011;64011;56.312;44.048;2023-09-30T01:01:31;30.23;;;17.40;;
38111;SDS011;64011;56.312;44.048;2023-09-30T01:03:32;29.00;;;17.83;;
38111;SDS011;64011;56.312;44.048;2023-09-30T01:05:33;31.08;;;18.17;;
38111;SDS011;64011;56.312;44.048;2023-09-30T01:07:33;28.30;;;18.20;;
38111;SDS011;64011;56.312;44.048;2023-09-30T01:09:36;34.13;;;19.48;;
38111;SDS011;64011;56.312;44.048;2023-09-30T01:11:37;32.15;;;19.35;;
38111;SDS011;64011;56.312;44.048;2023-09-30T01:13:38;32.78;;;20.15;;
38111;SDS011;64011;56.312;44.048;2023-09-30T01:15:39;33.05;;;20.35;;
38111;SDS011;64011;56.312;44.048;2023-09-30T01:17:39;32.92;;;20.70;;
38111;SDS011;64011;56.312;44.048;2023-09-30T01:19:40;32.38;;;19.90;;
38111;SDS011;64011;56.312;44.048;2023-09-30T01:21:43;32.95;;;20.77;;
38111;SDS011;64011;56.312;44.048;2023-09-30T01:23:44;32.90;;;20.88;;
38111;SDS011;64011;56.312;44.048;2023-09-30T01:25:44;35.00;;;22.67;;
38111;SDS011;64011;56.312;44.048;2023-09-30T01:27:45;31.85;;;20.75;;
38111;SDS011;64011;56.312;44.048;2023-09-30T01:29:46;30.25;;;20.70;;
38111;SDS011;64011;56.312;44.048;2023-09-30T01:31:47;34.20;;;20.75;;
38111;SDS011;64011;56.312;44.048;2023-09-30T01:33:48;31.88;;;20.80;;
38111;SDS011;64011;56.312;44.048;2023-09-30T01:35:49;31.45;;;20.27;;
38111;SDS011;64011;56.312;44.048;2023-09-30T01:37:51;34.70;;;20.50;;
38111;SDS011;64011;56.312;44.048;2023-09-30T01:39:52;29.65;;;20.08;;
38111;SDS011;64011;56.312;44.048;2023-09-30T01:41:53;32.05;;;19.42;;
38111;SDS011;64011;56.312;44.048;2023-09-30T01:43:54;32.50;;;20.30;;
38111;SDS011;64011;56.312;44.048;2023-09-30T01:45:55;30.55;;;19.92;;
38111;SDS011;64011;56.312;44.048;2023-09-30T01:47:55;29.40;;;18.40;;
38111;SDS011;64011;56.312;44.048;2023-09-30T01:49:56;32.90;;;19.40;;
38111;SDS011;64011;56.312;44.048;2023-09-30T01:51:57;30.35;;;19.60;;
38111;SDS011;64011;56.312;44.048;2023-09-30T01:53:59;30.35;;;19.40;;
38111;SDS011;64011;56.312;44.048;2023-09-30T01:56:00;32.70;;;19.23;;
38111;SDS011;64011;56.312;44.048;2023-09-30T01:58:01;30.67;;;19.33;;
38111;SDS011;64011;56.312;44.048;2023-09-30T02:00:03;30.35;;;19.10;;
38111;SDS011;64011;56.312;44.048;2023-09-30T02:02:06;30.77;;;18.90;;
38111;SDS011;64011;56.312;44.048;2023-09-30T02:04:07;28.20;;;18.10;;
38111;SDS011;64011;56.312;44.048;2023-09-30T02:06:08;30.80;;;17.90;;
38111;SDS011;64011;56.312;44.048;2023-09-30T02:08:09;28.35;;;17.38;;
38111;SDS011;64011;56.312;44.048;2023-09-30T02:10:11;28.58;;;18.25;;
38111;SDS011;64011;56.312;44.048;2023-09-30T02:12:12;28.67;;;17.23;;
38111;SDS011;64011;56.312;44.048;2023-09-30T02:14:13;28.02;;;17.27;;
38111;SDS011;64011;56.312;44.048;2023-09-30T02:16:15;27.48;;;16.42;;
38111;SDS011;64011;56.312;44.048;2023-09-30T02:18:17;30.83;;;18.30;;
38111;SDS011;64011;56.312;44.048;2023-09-30T02:20:18;27.63;;;17.02;;
38111;SDS011;64011;56.312;44.048;2023-09-30T02:22:19;25.48;;;15.75;;
38111;SDS011;64011;56.312;44.048;2023-09-30T02:24:20;27.02;;;16.60;;
38111;SDS011;64011;56.312;44.048;2023-09-30T02:26:22;27.17;;;16.55;;
38111;SDS011;64011;56.312;44.048;2023-09-30T02:28:23;27.48;;;17.02;;
38111;SDS011;64011;56.312;44.048;2023-09-30T02:30:24;30.65;;;16.63;;
38111;SDS011;64011;56.312;44.048;2023-09-30T02:32:25;27.58;;;16.88;;
38111;SDS011;64011;56.312;44.048;2023-09-30T02:34:26;27.77;;;17.65;;
38111;SDS011;64011;56.312;44.048;2023-09-30T02:36:27;27.80;;;18.10;;
38111;SDS011;64011;56.312;44.048;2023-09-30T02:38:27;28.17;;;17.30;;
38111;SDS011;64011;56.312;44.048;2023-09-30T02:40:28;31.73;;;18.55;;
38111;SDS011;64011;56.312;44.048;2023-09-30T02:42:31;28.23;;;18.02;;
38111;SDS011;64011;56.312;44.048;2023-09-30T02:44:32;28.25;;;18.60;;
38111;SDS011;64011;56.312;44.048;2023-09-30T02:46:33;31.42;;;18.65;;
38111;SDS011;64011;56.312;44.048;2023-09-30T02:48:34;31.27;;;19.10;;
38111;SDS011;64011;56.312;44.048;2023-09-30T02:50:34;33.60;;;20.13;;
38111;SDS011;64011;56.312;44.048;2023-09-30T02:52:36;31.20;;;20.42;;
38111;SDS011;64011;56.312;44.048;2023-09-30T02:54:36;30.35;;;20.50;;
38111;SDS011;64011;56.312;44.048;2023-09-30T02:56:37;33.75;;;20.27;;
38111;SDS011;64011;56.312;44.048;2023-09-30T02:58:39;29.27;;;18.63;;
38111;SDS011;64011;56.312;44.048;2023-09-30T03:00:40;33.25;;;20.73;;
38111;SDS011;64011;56.312;44.048;2023-09-30T03:02:41;29.95;;;18.08;;
38111;SDS011;64011;56.312;44.048;2023-09-30T03:04:42;31.13;;;18.70;;
38111;SDS011;64011;56.312;44.048;2023-09-30T03:06:43;31.08;;;18.38;;
38111;SDS011;64011;56.312;44.048;2023-09-30T03:08:44;27.52;;;17.67;;
38111;SDS011;64011;56.312;44.048;2023-09-30T03:10:44;31.65;;;19.05;;
38111;SDS011;64011;56.312;44.048;2023-09-30T03:12:46;31.15;;;20.05;;
38111;SDS011;64011;56.312;44.048;2023-09-30T03:14:48;29.88;;;19.33;;
38111;SDS011;64011;56.312;44.048;2023-09-30T03:16:49;32.13;;;19.52;;
38111;SDS011;64011;56.312;44.048;2023-09-30T03:18:50;30.15;;;19.48;;
38111;SDS011;64011;56.312;44.048;2023-09-30T03:20:51;33.35;;;18.77;;
38111;SDS011;64011;56.312;44.048;2023-09-30T03:22:52;27.08;;;16.70;;
38111;SDS011;64011;56.312;44.048;2023-09-30T03:24:54;30.48;;;18.23;;
38111;SDS011;64011;56.312;44.048;2023-09-30T03:26:55;30.33;;;18.45;;
38111;SDS011;64011;56.312;44.048;2023-09-30T03:28:56;28.88;;;17.38;;
38111;SDS011;64011;56.312;44.048;2023-09-30T03:30:58;28.27;;;16.92;;
38111;SDS011;64011;56.312;44.048;2023-09-30T03:32:59;27.45;;;16.92;;
38111;SDS011;64011;56.312;44.048;2023-09-30T03:35:00;28.45;;;16.92;;
38111;SDS011;64011;56.312;44.048;2023-09-30T03:37:00;27.35;;;16.65;;
38111;SDS011;64011;56.312;44.048;2023-09-30T03:39:01;27.35;;;17.98;;
38111;SDS011;64011;56.312;44.048;2023-09-30T03:41:02;27.70;;;16.92;;
38111;SDS011;64011;56.312;44.048;2023-09-30T03:43:03;26.85;;;17.63;;
38111;SDS011;64011;56.312;44.048;2023-09-30T03:45:05;27.58;;;16.05;;
38111;SDS011;64011;56.312;44.048;2023-09-30T03:47:07;29.35;;;17.95;;
38111;SDS011;64011;56.312;44.048;2023-09-30T03:49:08;27.52;;;17.30;;
38111;SDS011;64011;56.312;44.048;2023-09-30T03:51:09;27.67;;;16.45;;
38111;SDS011;64011;56.312;44.048;2023-09-30T03:53:10;27.13;;;16.60;;
38111;SDS011;64011;56.312;44.048;2023-09-30T03:55:11;29.67;;;16.70;;
38111;SDS011;64011;56.312;44.048;2023-09-30T03:57:13;27.85;;;17.17;;
38111;SDS011;64011;56.312;44.048;2023-09-30T03:59:14;26.55;;;16.80;;
38111;SDS011;64011;56.312;44.048;2023-09-30T04:01:15;28.23;;;16.55;;
38111;SDS011;64011;56.312;44.048;2023-09-30T04:03:17;28.70;;;17.42;;
38111;SDS011;64011;56.312;44.048;2023-09-30T04:05:18;27.10;;;16.90;;
38111;SDS011;64011;56.312;44.048;2023-09-30T04:07:19;26.85;;;16.58;;
38111;SDS011;64011;56.312;44.048;2023-09-30T04:09:20;25.80;;;15.65;;
38111;SDS011;64011;56.312;44.048;2023-09-30T04:11:20;24.30;;;15.00;;
38111;SDS011;64011;56.312;44.048;2023-09-30T04:13:21;26.67;;;15.57;;
38111;SDS011;64011;56.312;44.048;2023-09-30T04:15:22;25.30;;;15.60;;
38111;SDS011;64011;56.312;44.048;2023-09-30T04:17:23;26.17;;;15.23;;
38111;SDS011;64011;56.312;44.048;2023-09-30T04:19:25;25.80;;;15.32;;
38111;SDS011;64011;56.312;44.048;2023-09-30T04:21:26;26.15;;;15.52;;
38111;SDS011;64011;56.312;44.048;2023-09-30T04:23:27;24.17;;;14.48;;
38111;SDS011;64011;56.312;44.048;2023-09-30T04:25:28;27.38;;;15.82;;
38111;SDS011;64011;56.312;44.048;2023-09-30T04:27:29;23.55;;;15.13;;
38111;SDS011;64011;56.312;44.048;2023-09-30T04:29:30;29.08;;;16.60;;
38111;SDS011;64011;56.312;44.048;2023-09-30T04:31:31;28.08;;;17.17;;
38111;SDS011;64011;56.312;44.048;2023-09-30T04:33:32;29.13;;;17.60;;
38111;SDS011;64011;56.312;44.048;2023-09-30T04:35:34;28.70;;;17.67;;
38111;SDS011;64011;56.312;44.048;2023-09-30T04:37:35;29.85;;;18.63;;
38111;SDS011;64011;56.312;44.048;2023-09-30T04:39:36;26.27;;;15.85;;
38111;SDS011;64011;56.312;44.048;2023-09-30T04:41:37;26.15;;;16.55;;
38111;SDS011;64011;56.312;44.048;2023-09-30T04:43:38;24.92;;;16.00;;
38111;SDS011;64011;56.312;44.048;2023-09-30T04:45:38;23.60;;;14.40;;
38111;SDS011;64011;56.312;44.048;2023-09-30T04:47:39;27.60;;;15.50;;
38111;SDS011;64011;56.312;44.048;2023-09-30T04:49:40;27.00;;;15.45;;
38111;SDS011;64011;56.312;44.048;2023-09-30T04:51:42;27.48;;;15.57;;
38111;SDS011;64011;56.312;44.048;2023-09-30T04:53:43;23.92;;;15.02;;
38111;SDS011;64011;56.312;44.048;2023-09-30T04:55:44;25.63;;;15.65;;
38111;SDS011;64011;56.312;44.048;2023-09-30T04:57:46;24.92;;;14.85;;
38111;SDS011;64011;56.312;44.048;2023-09-30T04:59:47;26.98;;;14.60;;
38111;SDS011;64011;56.312;44.048;2023-09-30T05:01:48;24.52;;;14.88;;
38111;SDS011;64011;56.312;44.048;2023-09-30T05:03:49;23.95;;;15.00;;
38111;SDS011;64011;56.312;44.048;2023-09-30T05:05:50;24.05;;;14.43;;
38111;SDS011;64011;56.312;44.048;2023-09-30T05:07:53;28.35;;;15.57;;
38111;SDS011;64011;56.312;44.048;2023-09-30T05:09:54;27.63;;;15.52;;
38111;SDS011;64011;56.312;44.048;2023-09-30T05:11:54;26.58;;;15.50;;
38111;SDS011;64011;56.312;44.048;2023-09-30T05:13:55;24.58;;;15.65;;
38111;SDS011;64011;56.312;44.048;2023-09-30T05:15:56;27.15;;;15.35;;
38111;SDS011;64011;56.312;44.048;2023-09-30T05:17:57;23.90;;;13.90;;
38111;SDS011;64011;56.312;44.048;2023-09-30T05:19:58;25.63;;;16.00;;
38111;SDS011;64011;56.312;44.048;2023-09-30T05:21:59;26.52;;;14.77;;
38111;SDS011;64011;56.312;44.048;2023-09-30T05:24:01;27.55;;;14.88;;
38111;SDS011;64011;56.312;44.048;2023-09-30T05:26:03;25.17;;;15.05;;
38111;SDS011;64011;56.312;44.048;2023-09-30T05:28:03;25.15;;;14.65;;
38111;SDS011;64011;56.312;44.048;2023-09-30T05:30:05;27.75;;;15.75;;
38111;SDS011;64011;56.312;44.048;2023-09-30T05:32:07;31.05;;;16.00;;
38111;SDS011;64011;56.312;44.048;2023-09-30T05:34:08;26.13;;;16.10;;
38111;SDS011;64011;56.312;44.048;2023-09-30T05:36:08;25.30;;;15.68;;
38111;SDS011;64011;56.312;44.048;2023-09-30T05:38:09;28.95;;;15.50;;
38111;SDS011;64011;56.312;44.048;2023-09-30T05:40:12;25.20;;;16.00;;
38111;SDS011;64011;56.312;44.048;2023-09-30T05:42:13;26.80;;;16.45;;
38111;SDS011;64011;56.312;44.048;2023-09-30T05:44:14;24.77;;;14.80;;
38111;SDS011;64011;56.312;44.048;2023-09-30T05:46:15;24.63;;;14.65;;
38111;SDS011;64011;56.312;44.048;2023-09-30T05:48:16;25.90;;;15.27;;
38111;SDS011;64011;56.312;44.048;2023-09-30T05:50:17;30.35;;;15.93;;
38111;SDS011;64011;56.312;44.048;2023-09-30T05:52:17;26.48;;;15.75;;
38111;SDS011;64011;56.312;44.048;2023-09-30T05:54:18;25.00;;;14.77;;
38111;SDS011;64011;56.312;44.048;2023-09-30T05:56:21;25.40;;;15.05;;
38111;SDS011;64011;56.312;44.048;2023-09-30T05:58:21;25.42;;;14.73;;
38111;SDS011;64011;56.312;44.048;2023-09-30T06:00:22;23.95;;;15.27;;
38111;SDS011;64011;56.312;44.048;2023-09-30T06:02:24;26.98;;;15.18;;
38111;SDS011;64011;56.312;44.048;2023-09-30T06:04:24;26.17;;;15.05;;
38111;SDS011;64011;56.312;44.048;2023-09-30T06:06:25;22.48;;;13.85;;
38111;SDS011;64011;56.312;44.048;2023-09-30T06:08:26;23.20;;;14.15;;
38111;SDS011;64011;56.312;44.048;2023-09-30T06:10:27;28.92;;;15.35;;
38111;SDS011;64011;56.312;44.048;2023-09-30T06:12:29;25.90;;;14.85;;
38111;SDS011;64011;56.312;44.048;2023-09-30T06:14:30;25.08;;;14.95;;
38111;SDS011;64011;56.312;44.048;2023-09-30T06:16:31;28.23;;;14.77;;
38111;SDS011;64011;56.312;44.048;2023-09-30T06:18:32;26.33;;;15.52;;
38111;SDS011;64011;56.312;44.048;2023-09-30T06:20:33;25.85;;;14.93;;
38111;SDS011;64011;56.312;44.048;2023-09-30T06:22:34;25.08;;;15.10;;
38111;SDS011;64011;56.312;44.048;2023-09-30T06:24:35;28.02;;;15.60;;
38111;SDS011;64011;56.312;44.048;2023-09-30T06:26:36;25.48;;;15.63;;
38111;SDS011;64011;56.312;44.048;2023-09-30T06:28:38;25.67;;;14.82;;
38111;SDS011;64011;56.312;44.048;2023-09-30T06:30:39;30.08;;;15.15;;
38111;SDS011;64011;56.312;44.048;2023-09-30T06:32:40;25.35;;;14.82;;
38111;SDS011;64011;56.312;44.048;2023-09-30T06:34:41;26.98;;;15.15;;
38111;SDS011;64011;56.312;44.048;2023-09-30T06:36:42;29.58;;;15.35;;
38111;SDS011;64011;56.312;44.048;2023-09-30T06:38:44;26.15;;;14.32;;
38111;SDS011;64011;56.312;44.048;2023-09-30T06:40:45;27.23;;;14.55;;
38111;SDS011;64011;56.312;44.048;2023-09-30T06:42:46;28.00;;;15.18;;
38111;SDS011;64011;56.312;44.048;2023-09-30T06:44:49;30.50;;;14.60;;
38111;SDS011;64011;56.312;44.048;2023-09-30T06:46:50;27.10;;;15.10;;
38111;SDS011;64011;56.312;44.048;2023-09-30T06:48:51;27.42;;;15.52;;
38111;SDS011;64011;56.312;44.048;2023-09-30T06:50:52;24.00;;;14.50;;
38111;SDS011;64011;56.312;44.048;2023-09-30T06:52:52;25.58;;;14.18;;
38111;SDS011;64011;56.312;44.048;2023-09-30T06:54:53;33.25;;;15.20;;
38111;SDS011;64011;56.312;44.048;2023-09-30T06:56:54;24.48;;;14.85;;
38111;SDS011;64011;56.312;44.048;2023-09-30T06:58:55;24.88;;;14.65;;
38111;SDS011;64011;56.312;44.048;2023-09-30T07:00:57;26.30;;;15.05;;
38111;SDS011;64011;56.312;44.048;2023-09-30T07:02:58;25.00;;;14.70;;
38111;SDS011;64011;56.312;44.048;2023-09-30T07:05:00;27.90;;;14.52;;
38111;SDS011;64011;56.312;44.048;2023-09-30T07:07:00;25.83;;;14.13;;
38111;SDS011;64011;56.312;44.048;2023-09-30T07:09:04;27.00;;;14.57;;
38111;SDS011;64011;56.312;44.048;2023-09-30T07:11:05;24.45;;;13.77;;
38111;SDS011;64011;56.312;44.048;2023-09-30T07:13:05;23.50;;;12.60;;
38111;SDS011;64011;56.312;44.048;2023-09-30T07:15:07;23.42;;;13.50;;
38111;SDS011;64011;56.312;44.048;2023-09-30T07:17:10;24.40;;;13.13;;
38111;SDS011;64011;56.312;44.048;2023-09-30T07:19:11;23.00;;;12.73;;
38111;SDS011;64011;56.312;44.048;2023-09-30T07:21:11;25.00;;;12.95;;
38111;SDS011;64011;56.312;44.048;2023-09-30T07:23:13;29.08;;;13.35;;
38111;SDS011;64011;56.312;44.048;2023-09-30T07:25:14;26.30;;;13.43;;
38111;SDS011;64011;56.312;44.048;2023-09-30T07:27:15;23.60;;;13.38;;
38111;SDS011;64011;56.312;44.048;2023-09-30T07:29:16;21.83;;;12.48;;
38111;SDS011;64011;56.312;44.048;2023-09-30T07:31:17;24.60;;;12.57;;
38111;SDS011;64011;56.312;44.048;2023-09-30T07:33:19;24.98;;;12.07;;
38111;SDS011;64011;56.312;44.048;2023-09-30T07:35:20;23.30;;;12.70;;
38111;SDS011;64011;56.312;44.048;2023-09-30T07:37:21;23.38;;;12.07;;
38111;SDS011;64011;56.312;44.048;2023-09-30T07:39:22;23.17;;;13.15;;
38111;SDS011;64011;56.312;44.048;2023-09-30T07:41:23;24.35;;;12.07;;
38111;SDS011;64011;56.312;44.048;2023-09-30T07:43:24;24.45;;;12.75;;
38111;SDS011;64011;56.312;44.048;2023-09-30T07:45:25;25.27;;;12.77;;
38111;SDS011;64011;56.312;44.048;2023-09-30T07:47:25;28.33;;;13.57;;
38111;SDS011;64011;56.312;44.048;2023-09-30T07:49:28;26.20;;;12.48;;
38111;SDS011;64011;56.312;44.048;2023-09-30T07:51:28;24.52;;;13.05;;
38111;SDS011;64011;56.312;44.048;2023-09-30T07:53:29;23.27;;;12.90;;
38111;SDS011;64011;56.312;44.048;2023-09-30T07:55:30;24.45;;;13.52;;
38111;SDS011;64011;56.312;44.048;2023-09-30T07:57:31;24.25;;;12.68;;
38111;SDS011;64011;56.312;44.048;2023-09-30T07:59:32;31.95;;;23.10;;
38111;SDS011;64011;56.312;44.048;2023-09-30T08:01:33;25.67;;;12.68;;
38111;SDS011;64011;56.312;44.048;2023-09-30T08:03:34;30.73;;;12.63;;
38111;SDS011;64011;56.312;44.048;2023-09-30T08:05:36;26.90;;;13.20;;
38111;SDS011;64011;56.312;44.048;2023-09-30T08:07:37;23.13;;;11.75;;
38111;SDS011;64011;56.312;44.048;2023-09-30T08:09:38;22.48;;;11.15;;
38111;SDS011;64011;56.312;44.048;2023-09-30T08:11:39;25.80;;;12.73;;
38111;SDS011;64011;56.312;44.048;2023-09-30T08:13:40;23.65;;;12.30;;
38111;SDS011;64011;56.312;44.048;2023-09-30T08:15:41;21.75;;;12.45;;
38111;SDS011;64011;56.312;44.048;2023-09-30T08:17:42;24.67;;;12.82;;
38111;SDS011;64011;56.312;44.048;2023-09-30T08:19:43;22.70;;;12.02;;
38111;SDS011;64011;56.312;44.048;2023-09-30T08:21:45;25.77;;;12.80;;
38111;SDS011;64011;56.312;44.048;2023-09-30T08:23:47;23.30;;;11.93;;
38111;SDS011;64011;56.312;44.048;2023-09-30T08:25:48;22.08;;;12.40;;
38111;SDS011;64011;56.312;44.048;2023-09-30T08:27:48;22.80;;;11.93;;
38111;SDS011;64011;56.312;44.048;2023-09-30T08:29:49;22.60;;;12.50;;
38111;SDS011;64011;56.312;44.048;2023-09-30T08:31:50;20.63;;;10.32;;
38111;SDS011;64011;56.312;44.048;2023-09-30T08:33:51;26.88;;;11.60;;
38111;SDS011;64011;56.312;44.048;2023-09-30T08:35:52;20.38;;;10.80;;
38111;SDS011;64011;56.312;44.048;2023-09-30T08:37:54;21.40;;;10.65;;
38111;SDS011;64011;56.312;44.048;2023-09-30T08:39:55;22.65;;;11.13;;
38111;SDS011;64011;56.312;44.048;2023-09-30T08:41:56;25.75;;;12.38;;
38111;SDS011;64011;56.312;44.048;2023-09-30T08:43:58;21.13;;;10.20;;
38111;SDS011;64011;56.312;44.048;2023-09-30T08:46:00;21.20;;;11.23;;
38111;SDS011;64011;56.312;44.048;2023-09-30T08:48:03;23.83;;;10.90;;
38111;SDS011;64011;56.312;44.048;2023-09-30T08:50:05;19.73;;;10.38;;
38111;SDS011;64011;56.312;44.048;2023-09-30T08:52:07;21.92;;;10.07;;
38111;SDS011;64011;56.312;44.048;2023-09-30T08:54:12;20.83;;;10.57;;
38111;SDS011;64011;56.312;44.048;2023-09-30T08:56:12;20.83;;;9.38;;
38111;SDS011;64011;56.312;44.048;2023-09-30T08:58:14;20.77;;;9.32;;
38111;SDS011;64011;56.312;44.048;2023-09-30T09:00:15;22.08;;;9.68;;
38111;SDS011;64011;56.312;44.048;2023-09-30T09:02:16;22.05;;;10.02;;
38111;SDS011;64011;56.312;44.048;2023-09-30T09:04:17;18.65;;;9.00;;
38111;SDS011;64011;56.312;44.048;2023-09-30T09:06:18;19.42;;;9.10;;
38111;SDS011;64011;56.312;44.048;2023-09-30T09:08:19;24.13;;;10.18;;
38111;SDS011;64011;56.312;44.048;2023-09-30T09:10:21;24.83;;;10.57;;
38111;SDS011;64011;56.312;44.048;2023-09-30T09:12:22;19.95;;;9.32;;
38111;SDS011;64011;56.312;44.048;2023-09-30T09:14:36;20.75;;;9.65;;
38111;SDS011;64011;56.312;44.048;2023-09-30T09:16:37;22.55;;;9.07;;
38111;SDS011;64011;56.312;44.048;2023-09-30T09:18:37;17.77;;;9.60;;
38111;SDS011;64011;56.312;44.048;2023-09-30T09:20:38;22.45;;;9.90;;
38111;SDS011;64011;56.312;44.048;2023-09-30T09:22:40;22.00;;;9.85;;
38111;SDS011;64011;56.312;44.048;2023-09-30T09:24:41;22.40;;;9.63;;
38111;SDS011;64011;56.312;44.048;2023-09-30T09:26:43;19.75;;;9.65;;
38111;SDS011;64011;56.312;44.048;2023-09-30T09:28:44;22.50;;;9.23;;
38111;SDS011;64011;56.312;44.048;2023-09-30T09:30:45;20.38;;;9.63;;
38111;SDS011;64011;56.312;44.048;2023-09-30T09:32:58;22.00;;;10.13;;
38111;SDS011;64011;56.312;44.048;2023-09-30T09:35:00;20.35;;;9.45;;
38111;SDS011;64011;56.312;44.048;2023-09-30T09:37:05;18.75;;;9.00;;
38111;SDS011;64011;56.312;44.048;2023-09-30T09:39:13;18.23;;;9.48;;
38111;SDS011;64011;56.312;44.048;2023-09-30T09:41:14;20.55;;;8.68;;
38111;SDS011;64011;56.312;44.048;2023-09-30T09:43:16;20.35;;;8.80;;
38111;SDS011;64011;56.312;44.048;2023-09-30T09:45:17;18.33;;;8.35;;
38111;SDS011;64011;56.312;44.048;2023-09-30T09:47:18;18.58;;;8.18;;
38111;SDS011;64011;56.312;44.048;2023-09-30T09:49:22;17.45;;;8.10;;
38111;SDS011;64011;56.312;44.048;2023-09-30T09:51:23;18.80;;;8.30;;
38111;SDS011;64011;56.312;44.048;2023-09-30T09:53:23;20.25;;;8.95;;
38111;SDS011;64011;56.312;44.048;2023-09-30T09:55:25;17.92;;;8.15;;
38111;SDS011;64011;56.312;44.048;2023-09-30T09:57:26;16.83;;;8.48;;
38111;SDS011;64011;56.312;44.048;2023-09-30T09:59:29;19.35;;;9.05;;
38111;SDS011;64011;56.312;44.048;2023-09-30T10:01:32;17.75;;;7.90;;
38111;SDS011;64011;56.312;44.048;2023-09-30T10:03:33;17.48;;;8.90;;
38111;SDS011;64011;56.312;44.048;2023-09-30T10:05:34;19.30;;;8.93;;
38111;SDS011;64011;56.312;44.048;2023-09-30T10:07:36;17.15;;;8.40;;
38111;SDS011;64011;56.312;44.048;2023-09-30T10:09:39;20.83;;;10.23;;
38111;SDS011;64011;56.312;44.048;2023-09-30T10:11:44;18.23;;;9.55;;
38111;SDS011;64011;56.312;44.048;2023-09-30T10:13:54;20.63;;;10.25;;
38111;SDS011;64011;56.312;44.048;2023-09-30T10:15:58;18.63;;;11.05;;
38111;SDS011;64011;56.312;44.048;2023-09-30T10:17:59;23.42;;;11.80;;
38111;SDS011;64011;56.312;44.048;2023-09-30T10:20:03;22.60;;;10.30;;
38111;SDS011;64011;56.312;44.048;2023-09-30T10:22:21;21.92;;;11.65;;
38111;SDS011;64011;56.312;44.048;2023-09-30T10:24:28;21.63;;;10.52;;
38111;SDS011;64011;56.312;44.048;2023-09-30T10:26:30;21.92;;;10.90;;
38111;SDS011;64011;56.312;44.048;2023-09-30T10:28:37;22.15;;;10.30;;
38111;SDS011;64011;56.312;44.048;2023-09-30T10:30:39;22.65;;;11.73;;
38111;SDS011;64011;56.312;44.048;2023-09-30T10:33:14;22.92;;;10.80;;
38111;SDS011;64011;56.312;44.048;2023-09-30T10:35:15;20.35;;;9.63;;
38111;SDS011;64011;56.312;44.048;2023-09-30T10:37:22;18.77;;;9.50;;
38111;SDS011;64011;56.312;44.048;2023-09-30T10:41:58;17.45;;;8.43;;
38111;SDS011;64011;56.312;44.048;2023-09-30T10:44:05;20.67;;;8.25;;
38111;SDS011;64011;56.312;44.048;2023-09-30T10:46:38;19.83;;;8.80;;
38111;SDS011;64011;56.312;44.048;2023-09-30T10:48:38;20.10;;;8.68;;
38111;SDS011;64011;56.312;44.048;2023-09-30T10:50:52;18.55;;;9.18;;
38111;SDS011;64011;56.312;44.048;2023-09-30T10:52:53;16.83;;;8.80;;
38111;SDS011;64011;56.312;44.048;2023-09-30T10:54:54;19.48;;;9.43;;
38111;SDS011;64011;56.312;44.048;2023-09-30T10:57:05;21.73;;;9.43;;
38111;SDS011;64011;56.312;44.048;2023-09-30T10:59:06;19.35;;;9.27;;
38111;SDS011;64011;56.312;44.048;2023-09-30T11:01:06;20.10;;;9.68;;
38111;SDS011;64011;56.312;44.048;2023-09-30T11:03:10;18.33;;;8.98;;
38111;SDS011;64011;56.312;44.048;2023-09-30T11:05:11;17.27;;;8.90;;
38111;SDS011;64011;56.312;44.048;2023-09-30T11:07:15;19.65;;;8.73;;
38111;SDS011;64011;56.312;44.048;2023-09-30T11:09:19;19.67;;;9.55;;
38111;SDS011;64011;56.312;44.048;2023-09-30T11:11:31;18.10;;;8.38;;
38111;SDS011;64011;56.312;44.048;2023-09-30T11:13:36;21.75;;;9.63;;
38111;SDS011;64011;56.312;44.048;2023-09-30T11:15:37;17.13;;;8.70;;
38111;SDS011;64011;56.312;44.048;2023-09-30T11:17:38;16.83;;;8.75;;
38111;SDS011;64011;56.312;44.048;2023-09-30T11:19:45;20.80;;;9.18;;
38111;SDS011;64011;56.312;44.048;2023-09-30T11:21:48;18.33;;;8.70;;
38111;SDS011;64011;56.312;44.048;2023-09-30T11:23:49;19.48;;;9.15;;
38111;SDS011;64011;56.312;44.048;2023-09-30T11:25:50;17.90;;;8.48;;
38111;SDS011;64011;56.312;44.048;2023-09-30T11:27:51;20.83;;;9.10;;
38111;SDS011;64011;56.312;44.048;2023-09-30T11:29:51;21.63;;;9.77;;
38111;SDS011;64011;56.312;44.048;2023-09-30T11:31:52;18.58;;;8.98;;
38111;SDS011;64011;56.312;44.048;2023-09-30T11:33:53;19.45;;;8.75;;
38111;SDS011;64011;56.312;44.048;2023-09-30T11:35:59;18.95;;;8.70;;
38111;SDS011;64011;56.312;44.048;2023-09-30T11:38:01;19.55;;;9.75;;
38111;SDS011;64011;56.312;44.048;2023-09-30T11:40:09;20.70;;;9.35;;
38111;SDS011;64011;56.312;44.048;2023-09-30T11:44:15;23.52;;;10.15;;
38111;SDS011;64011;56.312;44.048;2023-09-30T11:46:16;21.10;;;9.45;;
38111;SDS011;64011;56.312;44.048;2023-09-30T11:48:17;20.60;;;8.80;;